createdAt,value
2023-04-09T06:02:55.854Z,98774.63
2023-04-09T06:22:58.634Z,98784.53
2023-04-09T06:43:01.348Z,98782.75
2023-04-09T07:03:15.274Z,98803.94
2023-04-09T07:23:18.795Z,98817.28
2023-04-09T07:43:22.635Z,98814.13
2023-04-09T08:03:25.653Z,98820.09
2023-04-09T08:23:28.651Z,98815.53
2023-04-09T08:43:47.191Z,98832.75
2023-04-09T09:03:53.978Z,98851.94
2023-04-09T09:23:56.719Z,98847.47
2023-04-09T09:43:59.448Z,98847.25
2023-04-09T10:04:02.094Z,98846.47
2023-04-09T10:24:07.175Z,98835.87
2023-04-09T10:44:09.823Z,98835.78
2023-04-09T11:04:12.685Z,98814.59
2023-04-09T11:24:15.338Z,98811.28
2023-04-09T11:44:17.940Z,98798.25
2023-04-09T12:04:20.831Z,98802.19
2023-04-09T12:24:23.641Z,98794.59
2023-04-09T12:44:26.233Z,98792.22
2023-04-09T13:04:29.139Z,98784.66
2023-04-09T13:24:31.980Z,98770.03
2023-04-09T13:44:34.745Z,98774.66
2023-04-09T14:04:37.457Z,98788.03
2023-04-09T14:24:41.060Z,98785.22
2023-04-09T14:44:43.762Z,98771.41
2023-04-09T15:04:46.494Z,98746.75
2023-04-09T15:24:49.187Z,98760.63
2023-04-09T15:44:51.843Z,98768.00
2023-04-09T16:04:54.479Z,98773.69
2023-04-09T16:24:57.159Z,98774.59
2023-04-09T16:44:59.875Z,98780.56
2023-04-09T17:05:02.499Z,98795.25
2023-04-09T17:25:06.165Z,98805.28
2023-04-09T17:45:08.867Z,98819.37
2023-04-09T18:05:11.993Z,98833.47
2023-04-09T18:25:14.635Z,98851.78
2023-04-09T18:45:17.294Z,98868.78
2023-04-09T19:05:20.207Z,98876.53
2023-04-09T19:25:24.091Z,98884.28
2023-04-09T19:45:26.863Z,98887.38
2023-04-09T20:05:29.663Z,98898.06
2023-04-09T20:25:36.122Z,98909.59
2023-04-09T20:45:38.821Z,98902.22
2023-04-09T21:05:41.913Z,98891.19
2023-04-09T21:25:44.752Z,98905.16
2023-04-09T21:45:47.480Z,98915.19
2023-04-09T22:05:50.226Z,98909.44
2023-04-09T22:25:52.892Z,98910.63
2023-04-09T22:45:55.646Z,98913.03
2023-04-09T23:05:58.292Z,98919.63
2023-04-09T23:26:00.940Z,98909.50
2023-04-09T23:46:03.599Z,98899.88
